RJAH METAR and TAF | Updated Today

RJAH METAR

Hyakuri Airport

Observation time: 60 min. ago

RJAH 292000Z 02003KT 9999 FEW025 SCT/// 16/16 Q1015

Need help? Read our tutorial on how to read METARs or read the parsed version below.

Hyakuri Airport (RJAH) METAR

  • Weather conditions on Thu, 29 Sep 2022 20:00:00 +0000 (60 min. ago):
  • Present conditions: Dry
  • Clouds: A few at 762 meters; scattered
  • Visibility: Greater than 10 km
  • Wind: 20 degrees at 3 knots
  • Temperature: 16 celsius
  • Dew point: 16 celsius
  • Pressure: 1015 millibars
  • Remarks: None


Useful to know...

RJAH TAF

Hyakuri Airport

TAF RJAH 291705Z 2918/0100 04008KT 9999 FEW020 SCT040
Observation time: 3:55 hr. ago
Need help? Read our tutorial on how to read TAFs or read the parsed version below.

Parsed version of TAF for Hyakuri Airport (RJAH)

  • From 29 September at 18:00 UTC, to day 01 of the month at 00:00 UTC
  • Clouds: A few at 610 meters; scattered at 1219 meters
  • Visibility: Greater than 10 km
  • Wind: 40 degrees at 8